Buchanan, Canada
Current Conditions -  °F | °C
As of 6:00 PM on Thursday 27 Nov 2014 (Local Time) from CYQV Reporting Station
Overcast Overcast  
Wind Chill: -5°   Ceiling: 12000
Heat Index:   Visibility: 9mi
Dew Point:   Wind: 7mph
Humidity: 85%   Direction: 80°E
Pressure: 30.05"   Gusts: NA
Location:  51.7°N, 102.75°W
Report Text: CYQV 280000Z AUTO 08006KT 9SM OVC120 M14/M16 A3005 RMK SLP227
Loading
Personal Weather Stations






























Interactive Weather Map New forecast layout! Learn more

10-Day Weather Forecast

Advertisements
Track Severe Weather on mobile